sensor_id;sensor_type;location;lat;lon;timestamp;pressure;altitude;pressure_sealevel;temperature;humidity
2000;BME280;1001;48.87406500;9.59633600;2023-01-08T00:00:55;94550.16;;;6.54;87.70
2000;BME280;1001;48.87406500;9.59633600;2023-01-08T00:03:23;94538.25;;;6.47;87.88
2000;BME280;1001;48.87406500;9.59633600;2023-01-08T00:05:50;94537.81;;;6.50;87.51
2000;BME280;1001;48.87406500;9.59633600;2023-01-08T00:08:16;94538.81;;;6.49;87.21
2000;BME280;1001;48.87406500;9.59633600;2023-01-08T00:10:43;94542.72;;;6.40;88.00
2000;BME280;1001;48.87406500;9.59633600;2023-01-08T00:13:10;94538.75;;;6.37;88.07
2000;BME280;1001;48.87406500;9.59633600;2023-01-08T00:15:36;94535.56;;;6.35;88.93
2000;BME280;1001;48.87406500;9.59633600;2023-01-08T00:18:04;94540.13;;;6.22;89.36
2000;BME280;1001;48.87406500;9.59633600;2023-01-08T00:20:31;94549.53;;;6.16;89.63
2000;BME280;1001;48.87406500;9.59633600;2023-01-08T00:22:58;94548.16;;;6.13;90.00
2000;BME280;1001;48.87406500;9.59633600;2023-01-08T00:25:24;94530.06;;;6.07;90.23
2000;BME280;1001;48.87406500;9.59633600;2023-01-08T00:27:51;94522.22;;;5.95;90.86
2000;BME280;1001;48.87406500;9.59633600;2023-01-08T00:30:17;94529.50;;;5.80;91.39
2000;BME280;1001;48.87406500;9.59633600;2023-01-08T00:32:44;94519.19;;;5.74;92.55
2000;BME280;1001;48.87406500;9.59633600;2023-01-08T00:35:12;94517.72;;;5.78;92.65
2000;BME280;1001;48.87406500;9.59633600;2023-01-08T00:37:38;94513.75;;;5.75;92.90
2000;BME280;1001;48.87406500;9.59633600;2023-01-08T00:40:06;94506.59;;;5.77;92.73
2000;BME280;1001;48.87406500;9.59633600;2023-01-08T00:42:33;94517.97;;;5.76;92.95
2000;BME280;1001;48.87406500;9.59633600;2023-01-08T00:45:00;94509.72;;;5.86;92.66
2000;BME280;1001;48.87406500;9.59633600;2023-01-08T00:47:26;94496.91;;;5.91;92.28
2000;BME280;1001;48.87406500;9.59633600;2023-01-08T00:49:53;94503.88;;;5.90;92.38
2000;BME280;1001;48.87406500;9.59633600;2023-01-08T00:52:21;94503.09;;;5.90;92.62
2000;BME280;1001;48.87406500;9.59633600;2023-01-08T00:54:47;94500.00;;;5.99;91.77
2000;BME280;1001;48.87406500;9.59633600;2023-01-08T00:57:14;94493.16;;;6.05;91.64
2000;BME280;1001;48.87406500;9.59633600;2023-01-08T00:59:40;94487.75;;;6.06;91.32
2000;BME280;1001;48.87406500;9.59633600;2023-01-08T01:02:07;94476.00;;;6.04;91.72
2000;BME280;1001;48.87406500;9.59633600;2023-01-08T01:04:34;94472.25;;;6.00;91.87
2000;BME280;1001;48.87406500;9.59633600;2023-01-08T01:07:01;94460.50;;;5.97;91.65
2000;BME280;1001;48.87406500;9.59633600;2023-01-08T01:09:29;94456.84;;;6.05;91.84
2000;BME280;1001;48.87406500;9.59633600;2023-01-08T01:11:55;94462.03;;;6.05;91.22
2000;BME280;1001;48.87406500;9.59633600;2023-01-08T01:14:23;94467.00;;;6.06;91.07
2000;BME280;1001;48.87406500;9.59633600;2023-01-08T01:16:49;94469.72;;;6.11;91.18
2000;BME280;1001;48.87406500;9.59633600;2023-01-08T01:19:16;94473.56;;;6.09;91.25
2000;BME280;1001;48.87406500;9.59633600;2023-01-08T01:21:43;94465.78;;;6.09;91.23
2000;BME280;1001;48.87406500;9.59633600;2023-01-08T01:24:11;94476.00;;;6.04;91.28
2000;BME280;1001;48.87406500;9.59633600;2023-01-08T01:26:39;94471.97;;;6.08;91.18
2000;BME280;1001;48.87406500;9.59633600;2023-01-08T01:29:06;94464.81;;;6.03;90.87
2000;BME280;1001;48.87406500;9.59633600;2023-01-08T01:31:33;94467.06;;;6.00;91.24
2000;BME280;1001;48.87406500;9.59633600;2023-01-08T01:34:00;94463.59;;;6.06;90.93
2000;BME280;1001;48.87406500;9.59633600;2023-01-08T01:36:26;94469.66;;;6.00;91.27
2000;BME280;1001;48.87406500;9.59633600;2023-01-08T01:38:55;94460.81;;;6.07;90.76
2000;BME280;1001;48.87406500;9.59633600;2023-01-08T01:41:25;94461.59;;;6.08;90.43
2000;BME280;1001;48.87406500;9.59633600;2023-01-08T01:43:54;94477.09;;;6.14;90.04
2000;BME280;1001;48.87406500;9.59633600;2023-01-08T01:46:29;94483.22;;;6.20;89.91
2000;BME280;1001;48.87406500;9.59633600;2023-01-08T01:49:03;94482.00;;;6.41;88.38
2000;BME280;1001;48.87406500;9.59633600;2023-01-08T01:51:32;94464.94;;;6.45;88.42
2000;BME280;1001;48.87406500;9.59633600;2023-01-08T01:54:01;94471.72;;;6.64;87.19
2000;BME280;1001;48.87406500;9.59633600;2023-01-08T01:56:29;94477.75;;;6.76;86.52
2000;BME280;1001;48.87406500;9.59633600;2023-01-08T01:58:59;94477.78;;;6.88;85.98
2000;BME280;1001;48.87406500;9.59633600;2023-01-08T02:01:26;94485.25;;;6.96;85.22
2000;BME280;1001;48.87406500;9.59633600;2023-01-08T02:03:53;94480.56;;;7.04;84.72
2000;BME280;1001;48.87406500;9.59633600;2023-01-08T02:06:30;94481.94;;;7.18;84.02
2000;BME280;1001;48.87406500;9.59633600;2023-01-08T02:09:01;94478.47;;;7.36;82.64
2000;BME280;1001;48.87406500;9.59633600;2023-01-08T02:11:36;94470.22;;;7.50;82.10
2000;BME280;1001;48.87406500;9.59633600;2023-01-08T02:14:10;94474.31;;;7.70;81.05
2000;BME280;1001;48.87406500;9.59633600;2023-01-08T02:16:43;94479.19;;;7.78;80.23
2000;BME280;1001;48.87406500;9.59633600;2023-01-08T02:19:17;94464.38;;;7.90;79.32
2000;BME280;1001;48.87406500;9.59633600;2023-01-08T02:21:55;94469.22;;;7.98;78.73
2000;BME280;1001;48.87406500;9.59633600;2023-01-08T02:24:37;94458.09;;;8.14;77.15
2000;BME280;1001;48.87406500;9.59633600;2023-01-08T02:27:08;94460.91;;;8.24;76.59
2000;BME280;1001;48.87406500;9.59633600;2023-01-08T02:29:35;94453.59;;;8.33;75.74
2000;BME280;1001;48.87406500;9.59633600;2023-01-08T02:32:02;94452.09;;;8.37;75.97
2000;BME280;1001;48.87406500;9.59633600;2023-01-08T02:34:28;94436.91;;;8.34;76.17
2000;BME280;1001;48.87406500;9.59633600;2023-01-08T02:36:57;94451.09;;;8.26;77.50
2000;BME280;1001;48.87406500;9.59633600;2023-01-08T02:39:35;94437.88;;;7.81;79.04
2000;BME280;1001;48.87406500;9.59633600;2023-01-08T02:42:11;94429.28;;;7.57;80.26
2000;BME280;1001;48.87406500;9.59633600;2023-01-08T02:44:52;94430.44;;;7.50;80.96
2000;BME280;1001;48.87406500;9.59633600;2023-01-08T02:47:25;94420.94;;;7.44;81.66
2000;BME280;1001;48.87406500;9.59633600;2023-01-08T02:50:07;94406.13;;;7.56;80.96
2000;BME280;1001;48.87406500;9.59633600;2023-01-08T02:52:40;94397.31;;;7.57;81.48
2000;BME280;1001;48.87406500;9.59633600;2023-01-08T02:55:08;94391.06;;;7.58;80.86
2000;BME280;1001;48.87406500;9.59633600;2023-01-08T02:57:37;94393.69;;;7.46;81.78
2000;BME280;1001;48.87406500;9.59633600;2023-01-08T03:00:06;94386.88;;;7.69;79.55
2000;BME280;1001;48.87406500;9.59633600;2023-01-08T03:02:34;94383.72;;;7.55;80.33
2000;BME280;1001;48.87406500;9.59633600;2023-01-08T03:05:08;94386.66;;;7.59;81.13
2000;BME280;1001;48.87406500;9.59633600;2023-01-08T03:07:38;94376.81;;;7.49;81.02
2000;BME280;1001;48.87406500;9.59633600;2023-01-08T03:10:06;94376.03;;;7.48;81.01
2000;BME280;1001;48.87406500;9.59633600;2023-01-08T03:12:43;94372.88;;;7.46;80.99
2000;BME280;1001;48.87406500;9.59633600;2023-01-08T03:15:13;94374.47;;;7.47;80.73
2000;BME280;1001;48.87406500;9.59633600;2023-01-08T03:17:45;94372.19;;;7.51;80.96
2000;BME280;1001;48.87406500;9.59633600;2023-01-08T03:20:15;94369.03;;;7.49;81.37
2000;BME280;1001;48.87406500;9.59633600;2023-01-08T03:22:44;94371.84;;;7.47;80.96
2000;BME280;1001;48.87406500;9.59633600;2023-01-08T03:25:13;94362.22;;;7.48;81.22
2000;BME280;1001;48.87406500;9.59633600;2023-01-08T03:27:46;94363.69;;;7.55;80.16
2000;BME280;1001;48.87406500;9.59633600;2023-01-08T03:30:15;94362.13;;;7.66;79.97
2000;BME280;1001;48.87406500;9.59633600;2023-01-08T03:32:44;94365.81;;;7.82;78.45
2000;BME280;1001;48.87406500;9.59633600;2023-01-08T03:35:15;94353.22;;;7.90;77.68
2000;BME280;1001;48.87406500;9.59633600;2023-01-08T03:37:45;94360.44;;;8.00;77.08
2000;BME280;1001;48.87406500;9.59633600;2023-01-08T03:40:17;94354.88;;;8.08;76.80
2000;BME280;1001;48.87406500;9.59633600;2023-01-08T03:42:47;94356.53;;;8.14;75.64
2000;BME280;1001;48.87406500;9.59633600;2023-01-08T03:45:14;94359.72;;;8.16;76.03
2000;BME280;1001;48.87406500;9.59633600;2023-01-08T03:47:41;94351.31;;;8.26;75.77
2000;BME280;1001;48.87406500;9.59633600;2023-01-08T03:50:14;94351.31;;;8.26;74.91
2000;BME280;1001;48.87406500;9.59633600;2023-01-08T03:52:42;94340.00;;;8.32;74.16
2000;BME280;1001;48.87406500;9.59633600;2023-01-08T03:55:09;94341.66;;;8.38;73.93
2000;BME280;1001;48.87406500;9.59633600;2023-01-08T03:57:35;94341.19;;;8.41;73.64
2000;BME280;1001;48.87406500;9.59633600;2023-01-08T04:00:05;94329.84;;;8.47;72.59
2000;BME280;1001;48.87406500;9.59633600;2023-01-08T04:02:32;94330.16;;;8.50;73.21
2000;BME280;1001;48.87406500;9.59633600;2023-01-08T04:04:58;94323.31;;;8.61;71.67
2000;BME280;1001;48.87406500;9.59633600;2023-01-08T04:07:25;94329.47;;;8.71;71.30
2000;BME280;1001;48.87406500;9.59633600;2023-01-08T04:09:51;94324.69;;;8.80;71.30
2000;BME280;1001;48.87406500;9.59633600;2023-01-08T04:12:18;94328.31;;;8.96;69.52
2000;BME280;1001;48.87406500;9.59633600;2023-01-08T04:14:44;94317.50;;;9.04;69.67
2000;BME280;1001;48.87406500;9.59633600;2023-01-08T04:17:12;94333.19;;;9.09;68.71
2000;BME280;1001;48.87406500;9.59633600;2023-01-08T04:19:39;94331.63;;;9.08;69.28
2000;BME280;1001;48.87406500;9.59633600;2023-01-08T04:22:06;94333.44;;;9.07;69.59
2000;BME280;1001;48.87406500;9.59633600;2023-01-08T04:24:34;94334.72;;;9.05;69.60
2000;BME280;1001;48.87406500;9.59633600;2023-01-08T04:27:01;94332.09;;;9.05;68.43
2000;BME280;1001;48.87406500;9.59633600;2023-01-08T04:29:27;94321.44;;;9.06;68.97
2000;BME280;1001;48.87406500;9.59633600;2023-01-08T04:31:54;94325.63;;;9.07;68.33
2000;BME280;1001;48.87406500;9.59633600;2023-01-08T04:34:22;94331.16;;;9.11;68.24
2000;BME280;1001;48.87406500;9.59633600;2023-01-08T04:36:48;94327.59;;;9.00;69.09
2000;BME280;1001;48.87406500;9.59633600;2023-01-08T04:39:15;94327.13;;;8.86;71.16
2000;BME280;1001;48.87406500;9.59633600;2023-01-08T04:41:41;94313.84;;;8.71;70.83
2000;BME280;1001;48.87406500;9.59633600;2023-01-08T04:44:08;94321.66;;;8.71;70.70
2000;BME280;1001;48.87406500;9.59633600;2023-01-08T04:46:35;94321.50;;;8.78;70.16
2000;BME280;1001;48.87406500;9.59633600;2023-01-08T04:49:02;94331.00;;;8.84;69.14
2000;BME280;1001;48.87406500;9.59633600;2023-01-08T04:51:29;94317.88;;;8.96;68.70
2000;BME280;1001;48.87406500;9.59633600;2023-01-08T04:53:56;94323.66;;;8.98;67.99
2000;BME280;1001;48.87406500;9.59633600;2023-01-08T04:56:23;94314.31;;;9.02;68.58
2000;BME280;1001;48.87406500;9.59633600;2023-01-08T04:58:49;94308.88;;;9.03;67.59
2000;BME280;1001;48.87406500;9.59633600;2023-01-08T05:01:18;94320.03;;;8.99;68.43
2000;BME280;1001;48.87406500;9.59633600;2023-01-08T05:03:45;94327.59;;;8.67;71.46
2000;BME280;1001;48.87406500;9.59633600;2023-01-08T05:06:12;94334.81;;;8.20;73.92
2000;BME280;1001;48.87406500;9.59633600;2023-01-08T05:08:40;94331.00;;;8.11;74.22
2000;BME280;1001;48.87406500;9.59633600;2023-01-08T05:11:06;94331.69;;;8.06;73.91
2000;BME280;1001;48.87406500;9.59633600;2023-01-08T05:13:33;94335.72;;;8.14;73.69
2000;BME280;1001;48.87406500;9.59633600;2023-01-08T05:16:00;94332.66;;;8.17;73.45
2000;BME280;1001;48.87406500;9.59633600;2023-01-08T05:18:27;94347.59;;;8.21;73.52
2000;BME280;1001;48.87406500;9.59633600;2023-01-08T05:20:54;94340.47;;;8.17;73.72
2000;BME280;1001;48.87406500;9.59633600;2023-01-08T05:23:20;94355.13;;;8.06;74.62
2000;BME280;1001;48.87406500;9.59633600;2023-01-08T05:25:48;94363.28;;;7.98;75.31
2000;BME280;1001;48.87406500;9.59633600;2023-01-08T05:28:15;94367.28;;;7.89;75.94
2000;BME280;1001;48.87406500;9.59633600;2023-01-08T05:30:41;94367.06;;;7.79;76.79
2000;BME280;1001;48.87406500;9.59633600;2023-01-08T05:33:08;94354.19;;;7.73;77.62
2000;BME280;1001;48.87406500;9.59633600;2023-01-08T05:35:35;94358.81;;;7.71;78.98
2000;BME280;1001;48.87406500;9.59633600;2023-01-08T05:38:04;94347.41;;;7.60;79.79
2000;BME280;1001;48.87406500;9.59633600;2023-01-08T05:40:30;94348.31;;;7.54;81.00
2000;BME280;1001;48.87406500;9.59633600;2023-01-08T05:42:59;94337.94;;;7.42;82.81
2000;BME280;1001;48.87406500;9.59633600;2023-01-08T05:45:26;94334.66;;;7.47;83.76
2000;BME280;1001;48.87406500;9.59633600;2023-01-08T05:47:52;94337.25;;;7.47;84.42
2000;BME280;1001;48.87406500;9.59633600;2023-01-08T05:50:19;94342.34;;;7.42;85.91
2000;BME280;1001;48.87406500;9.59633600;2023-01-08T05:52:46;94336.78;;;7.38;87.42
2000;BME280;1001;48.87406500;9.59633600;2023-01-08T05:55:12;94344.38;;;7.40;87.40
2000;BME280;1001;48.87406500;9.59633600;2023-01-08T05:57:39;94341.91;;;7.33;88.60
2000;BME280;1001;48.87406500;9.59633600;2023-01-08T06:00:09;94330.34;;;7.18;89.68
2000;BME280;1001;48.87406500;9.59633600;2023-01-08T06:02:35;94345.63;;;7.14;91.31
2000;BME280;1001;48.87406500;9.59633600;2023-01-08T06:05:02;94344.16;;;7.07;91.74
2000;BME280;1001;48.87406500;9.59633600;2023-01-08T06:07:29;94341.13;;;7.10;92.36
2000;BME280;1001;48.87406500;9.59633600;2023-01-08T06:09:56;94335.44;;;7.01;93.34
2000;BME280;1001;48.87406500;9.59633600;2023-01-08T06:12:23;94339.16;;;7.05;93.67
2000;BME280;1001;48.87406500;9.59633600;2023-01-08T06:14:50;94335.66;;;7.00;94.30
2000;BME280;1001;48.87406500;9.59633600;2023-01-08T06:17:18;94335.19;;;6.91;94.95
2000;BME280;1001;48.87406500;9.59633600;2023-01-08T06:19:44;94338.59;;;6.92;95.74
2000;BME280;1001;48.87406500;9.59633600;2023-01-08T06:22:12;94349.66;;;6.87;96.69
2000;BME280;1001;48.87406500;9.59633600;2023-01-08T06:24:39;94355.09;;;6.85;97.40
2000;BME280;1001;48.87406500;9.59633600;2023-01-08T06:27:05;94352.59;;;6.79;98.17
2000;BME280;1001;48.87406500;9.59633600;2023-01-08T06:29:32;94350.34;;;6.82;98.25
2000;BME280;1001;48.87406500;9.59633600;2023-01-08T06:31:58;94352.69;;;6.72;99.29
2000;BME280;1001;48.87406500;9.59633600;2023-01-08T06:34:26;94349.75;;;6.69;100.00
2000;BME280;1001;48.87406500;9.59633600;2023-01-08T06:36:53;94354.59;;;6.77;100.00
2000;BME280;1001;48.87406500;9.59633600;2023-01-08T06:39:20;94352.50;;;6.85;100.00
2000;BME280;1001;48.87406500;9.59633600;2023-01-08T06:41:46;94337.69;;;6.86;100.00
2000;BME280;1001;48.87406500;9.59633600;2023-01-08T06:44:13;94326.28;;;6.87;100.00
2000;BME280;1001;48.87406500;9.59633600;2023-01-08T06:46:39;94341.19;;;6.80;100.00
2000;BME280;1001;48.87406500;9.59633600;2023-01-08T06:49:06;94331.22;;;6.77;100.00
2000;BME280;1001;48.87406500;9.59633600;2023-01-08T06:51:34;94325.72;;;6.85;100.00
2000;BME280;1001;48.87406500;9.59633600;2023-01-08T06:54:01;94298.13;;;6.96;100.00
2000;BME280;1001;48.87406500;9.59633600;2023-01-08T06:56:28;94292.84;;;7.02;100.00
2000;BME280;1001;48.87406500;9.59633600;2023-01-08T06:58:55;94291.25;;;7.13;100.00
2000;BME280;1001;48.87406500;9.59633600;2023-01-08T07:01:21;94295.44;;;7.25;100.00
2000;BME280;1001;48.87406500;9.59633600;2023-01-08T07:03:48;94320.50;;;7.31;100.00
2000;BME280;1001;48.87406500;9.59633600;2023-01-08T07:06:15;94336.91;;;7.32;100.00
2000;BME280;1001;48.87406500;9.59633600;2023-01-08T07:08:45;94346.19;;;7.28;100.00
2000;BME280;1001;48.87406500;9.59633600;2023-01-08T07:11:12;94345.63;;;7.26;100.00
2000;BME280;1001;48.87406500;9.59633600;2023-01-08T07:13:39;94340.06;;;7.22;100.00
2000;BME280;1001;48.87406500;9.59633600;2023-01-08T07:16:07;94341.78;;;7.17;100.00
2000;BME280;1001;48.87406500;9.59633600;2023-01-08T07:18:34;94344.03;;;7.13;100.00
2000;BME280;1001;48.87406500;9.59633600;2023-01-08T07:21:01;94341.75;;;7.05;100.00
2000;BME280;1001;48.87406500;9.59633600;2023-01-08T07:23:28;94356.09;;;6.96;100.00
2000;BME280;1001;48.87406500;9.59633600;2023-01-08T07:25:58;94349.53;;;6.82;100.00
2000;BME280;1001;48.87406500;9.59633600;2023-01-08T07:28:25;94344.56;;;6.80;100.00
2000;BME280;1001;48.87406500;9.59633600;2023-01-08T07:30:52;94356.31;;;6.83;100.00
2000;BME280;1001;48.87406500;9.59633600;2023-01-08T07:33:18;94354.84;;;6.75;100.00
2000;BME280;1001;48.87406500;9.59633600;2023-01-08T07:35:51;94364.66;;;6.73;100.00
2000;BME280;1001;48.87406500;9.59633600;2023-01-08T07:38:17;94347.72;;;6.71;100.00
2000;BME280;1001;48.87406500;9.59633600;2023-01-08T07:40:44;94350.56;;;6.81;100.00
2000;BME280;1001;48.87406500;9.59633600;2023-01-08T07:43:12;94353.94;;;6.81;100.00
2000;BME280;1001;48.87406500;9.59633600;2023-01-08T07:45:38;94353.25;;;6.74;100.00
2000;BME280;1001;48.87406500;9.59633600;2023-01-08T07:48:05;94350.88;;;6.73;100.00
2000;BME280;1001;48.87406500;9.59633600;2023-01-08T07:50:35;94347.03;;;6.75;100.00
2000;BME280;1001;48.87406500;9.59633600;2023-01-08T07:53:03;94352.00;;;6.77;100.00
2000;BME280;1001;48.87406500;9.59633600;2023-01-08T07:55:30;94359.59;;;6.78;100.00
2000;BME280;1001;48.87406500;9.59633600;2023-01-08T07:57:56;94344.69;;;6.74;100.00
2000;BME280;1001;48.87406500;9.59633600;2023-01-08T08:00:25;94329.31;;;6.72;100.00
2000;BME280;1001;48.87406500;9.59633600;2023-01-08T08:02:52;94326.94;;;6.71;100.00
2000;BME280;1001;48.87406500;9.59633600;2023-01-08T08:05:18;94342.53;;;6.71;100.00
2000;BME280;1001;48.87406500;9.59633600;2023-01-08T08:07:45;94347.03;;;6.75;100.00
2000;BME280;1001;48.87406500;9.59633600;2023-01-08T08:10:11;94339.13;;;6.70;100.00
2000;BME280;1001;48.87406500;9.59633600;2023-01-08T08:12:38;94333.13;;;6.70;100.00
2000;BME280;1001;48.87406500;9.59633600;2023-01-08T08:15:06;94343.75;;;6.68;100.00
2000;BME280;1001;48.87406500;9.59633600;2023-01-08T08:17:34;94336.53;;;6.70;100.00
2000;BME280;1001;48.87406500;9.59633600;2023-01-08T08:20:00;94345.34;;;6.69;100.00
2000;BME280;1001;48.87406500;9.59633600;2023-01-08T08:22:27;94330.09;;;6.73;100.00
2000;BME280;1001;48.87406500;9.59633600;2023-01-08T08:24:54;94329.75;;;6.69;100.00
2000;BME280;1001;48.87406500;9.59633600;2023-01-08T08:27:21;94325.25;;;6.76;100.00
2000;BME280;1001;48.87406500;9.59633600;2023-01-08T08:29:48;94335.41;;;6.78;100.00
2000;BME280;1001;48.87406500;9.59633600;2023-01-08T08:32:15;94335.41;;;6.78;100.00
2000;BME280;1001;48.87406500;9.59633600;2023-01-08T08:34:43;94334.75;;;6.82;100.00
2000;BME280;1001;48.87406500;9.59633600;2023-01-08T08:37:09;94340.94;;;6.81;100.00
2000;BME280;1001;48.87406500;9.59633600;2023-01-08T08:39:36;94331.91;;;6.84;100.00
2000;BME280;1001;48.87406500;9.59633600;2023-01-08T08:42:03;94329.22;;;6.79;100.00
2000;BME280;1001;48.87406500;9.59633600;2023-01-08T08:44:30;94331.59;;;6.80;100.00
2000;BME280;1001;48.87406500;9.59633600;2023-01-08T08:46:56;94321.63;;;6.77;100.00
2000;BME280;1001;48.87406500;9.59633600;2023-01-08T08:49:23;94321.44;;;6.79;100.00
2000;BME280;1001;48.87406500;9.59633600;2023-01-08T08:51:51;94319.16;;;6.82;100.00
2000;BME280;1001;48.87406500;9.59633600;2023-01-08T08:54:17;94315.56;;;6.83;100.00
2000;BME280;1001;48.87406500;9.59633600;2023-01-08T08:56:46;94312.28;;;6.88;100.00
2000;BME280;1001;48.87406500;9.59633600;2023-01-08T08:59:13;94311.47;;;6.88;100.00
2000;BME280;1001;48.87406500;9.59633600;2023-01-08T09:01:40;94313.16;;;6.82;100.00
2000;BME280;1001;48.87406500;9.59633600;2023-01-08T09:04:06;94309.44;;;6.90;100.00
2000;BME280;1001;48.87406500;9.59633600;2023-01-08T09:06:33;94314.63;;;6.90;100.00
2000;BME280;1001;48.87406500;9.59633600;2023-01-08T09:09:01;94308.22;;;6.92;100.00
2000;BME280;1001;48.87406500;9.59633600;2023-01-08T09:11:27;94309.31;;;6.96;100.00
2000;BME280;1001;48.87406500;9.59633600;2023-01-08T09:13:54;94309.56;;;6.95;100.00
2000;BME280;1001;48.87406500;9.59633600;2023-01-08T09:16:20;94302.56;;;6.95;100.00
2000;BME280;1001;48.87406500;9.59633600;2023-01-08T09:18:47;94301.44;;;7.03;100.00
2000;BME280;1001;48.87406500;9.59633600;2023-01-08T09:21:14;94305.72;;;7.09;100.00
2000;BME280;1001;48.87406500;9.59633600;2023-01-08T09:23:41;94308.66;;;7.12;100.00
2000;BME280;1001;48.87406500;9.59633600;2023-01-08T09:26:09;94302.69;;;7.12;100.00
2000;BME280;1001;48.87406500;9.59633600;2023-01-08T09:28:35;94310.81;;;7.15;100.00
2000;BME280;1001;48.87406500;9.59633600;2023-01-08T09:31:02;94306.97;;;7.18;100.00
2000;BME280;1001;48.87406500;9.59633600;2023-01-08T09:33:29;94306.28;;;7.22;100.00
2000;BME280;1001;48.87406500;9.59633600;2023-01-08T09:35:56;94312.50;;;7.21;100.00
2000;BME280;1001;48.87406500;9.59633600;2023-01-08T09:38:23;94310.91;;;7.20;100.00
2000;BME280;1001;48.87406500;9.59633600;2023-01-08T09:40:54;94302.88;;;7.22;100.00
2000;BME280;1001;48.87406500;9.59633600;2023-01-08T09:43:25;94304.22;;;7.24;100.00
2000;BME280;1001;48.87406500;9.59633600;2023-01-08T09:45:55;94304.03;;;7.26;100.00
2000;BME280;1001;48.87406500;9.59633600;2023-01-08T09:48:27;94296.00;;;7.27;100.00
2000;BME280;1001;48.87406500;9.59633600;2023-01-08T09:50:55;94302.09;;;7.33;100.00
2000;BME280;1001;48.87406500;9.59633600;2023-01-08T09:53:22;94289.91;;;7.33;100.00
2000;BME280;1001;48.87406500;9.59633600;2023-01-08T09:55:54;94296.66;;;7.34;100.00
2000;BME280;1001;48.87406500;9.59633600;2023-01-08T09:58:31;94297.47;;;7.35;100.00
2000;BME280;1001;48.87406500;9.59633600;2023-01-08T10:01:00;94293.38;;;7.39;100.00
2000;BME280;1001;48.87406500;9.59633600;2023-01-08T10:03:30;94294.97;;;7.40;100.00
2000;BME280;1001;48.87406500;9.59633600;2023-01-08T10:06:08;94290.78;;;7.39;100.00
2000;BME280;1001;48.87406500;9.59633600;2023-01-08T10:08:34;94275.97;;;7.39;100.00
2000;BME280;1001;48.87406500;9.59633600;2023-01-08T10:11:01;94278.31;;;7.41;100.00
2000;BME280;1001;48.87406500;9.59633600;2023-01-08T10:13:30;94289.97;;;7.38;100.00
2000;BME280;1001;48.87406500;9.59633600;2023-01-08T10:15:57;94280.94;;;7.41;100.00
2000;BME280;1001;48.87406500;9.59633600;2023-01-08T10:18:26;94284.44;;;7.35;100.00
2000;BME280;1001;48.87406500;9.59633600;2023-01-08T10:20:54;94289.41;;;7.36;100.00
2000;BME280;1001;48.87406500;9.59633600;2023-01-08T10:23:20;94291.81;;;7.38;100.00
2000;BME280;1001;48.87406500;9.59633600;2023-01-08T10:25:50;94286.03;;;7.36;100.00
2000;BME280;1001;48.87406500;9.59633600;2023-01-08T10:28:20;94287.38;;;7.38;100.00
2000;BME280;1001;48.87406500;9.59633600;2023-01-08T10:30:49;94287.38;;;7.38;100.00
2000;BME280;1001;48.87406500;9.59633600;2023-01-08T10:33:20;94280.06;;;7.35;100.00
2000;BME280;1001;48.87406500;9.59633600;2023-01-08T10:35:54;94279.91;;;7.42;100.00
2000;BME280;1001;48.87406500;9.59633600;2023-01-08T10:38:27;94268.97;;;7.40;100.00
2000;BME280;1001;48.87406500;9.59633600;2023-01-08T10:40:55;94264.88;;;7.44;100.00
2000;BME280;1001;48.87406500;9.59633600;2023-01-08T10:43:26;94273.47;;;7.44;100.00
2000;BME280;1001;48.87406500;9.59633600;2023-01-08T10:45:57;94262.63;;;7.47;100.00
2000;BME280;1001;48.87406500;9.59633600;2023-01-08T10:48:30;94262.38;;;7.49;100.00
2000;BME280;1001;48.87406500;9.59633600;2023-01-08T10:51:05;94268.69;;;7.53;100.00
2000;BME280;1001;48.87406500;9.59633600;2023-01-08T10:53:32;94259.09;;;7.53;100.00
2000;BME280;1001;48.87406500;9.59633600;2023-01-08T10:56:01;94261.44;;;7.55;100.00
2000;BME280;1001;48.87406500;9.59633600;2023-01-08T10:58:29;94257.47;;;7.64;100.00
2000;BME280;1001;48.87406500;9.59633600;2023-01-08T11:01:10;94248.63;;;7.65;100.00
2000;BME280;1001;48.87406500;9.59633600;2023-01-08T11:03:39;94252.03;;;7.66;100.00
2000;BME280;1001;48.87406500;9.59633600;2023-01-08T11:06:10;94248.41;;;7.67;100.00
2000;BME280;1001;48.87406500;9.59633600;2023-01-08T11:08:38;94249.28;;;7.72;100.00
2000;BME280;1001;48.87406500;9.59633600;2023-01-08T11:11:06;94248.59;;;7.77;100.00
2000;BME280;1001;48.87406500;9.59633600;2023-01-08T11:13:35;94243.94;;;7.79;100.00
2000;BME280;1001;48.87406500;9.59633600;2023-01-08T11:16:03;94237.38;;;7.88;100.00
2000;BME280;1001;48.87406500;9.59633600;2023-01-08T11:18:35;94233.53;;;7.79;100.00
2000;BME280;1001;48.87406500;9.59633600;2023-01-08T11:21:09;94246.34;;;7.80;100.00
2000;BME280;1001;48.87406500;9.59633600;2023-01-08T11:23:36;94240.00;;;7.76;100.00
2000;BME280;1001;48.87406500;9.59633600;2023-01-08T11:26:06;94245.19;;;7.76;100.00
2000;BME280;1001;48.87406500;9.59633600;2023-01-08T11:28:44;94241.84;;;7.76;100.00
2000;BME280;1001;48.87406500;9.59633600;2023-01-08T11:31:16;94237.59;;;7.86;100.00
2000;BME280;1001;48.87406500;9.59633600;2023-01-08T11:33:46;94235.69;;;7.82;100.00
2000;BME280;1001;48.87406500;9.59633600;2023-01-08T11:36:20;94233.09;;;7.82;100.00
2000;BME280;1001;48.87406500;9.59633600;2023-01-08T11:38:49;94227.41;;;7.85;100.00
2000;BME280;1001;48.87406500;9.59633600;2023-01-08T11:41:27;94226.63;;;7.84;100.00
2000;BME280;1001;48.87406500;9.59633600;2023-01-08T11:44:11;94228.78;;;7.87;100.00
2000;BME280;1001;48.87406500;9.59633600;2023-01-08T11:46:47;94214.41;;;7.85;100.00
2000;BME280;1001;48.87406500;9.59633600;2023-01-08T11:49:35;94208.97;;;7.86;100.00
2000;BME280;1001;48.87406500;9.59633600;2023-01-08T11:52:27;94202.66;;;7.82;100.00
2000;BME280;1001;48.87406500;9.59633600;2023-01-08T11:55:10;94200.22;;;7.92;100.00